Mineral, WA (98355)

3:03 PM PST on February 13, 2016 (GMT -0800)
Mountain Foothills | | Change Station
CLOSE
Current Station
Personal Weather Station
Location: Mineral, WA
Elevation: 1455 ft
Nearby Weather Stations
Active Advisory: Winter Weather Advisory

Elev 1455 ft 46.71 °N, 122.18 °W | Updated 13 seconds ago

Rain
Rain
41.2 °F
Feels Like 41 °F
N
0.4
Wind Variable Wind from NNE
Gusts 2.5 mph

Today
High -- | Low -- °F
--% Chance of Precip.
Yesterday
High -- | Low -- °F
Precip. -- in
Pressure 30.19 in
Visibility 4.0 miles
Clouds Scattered Clouds 2500 ft
Overcast 3500 ft
Windchill 41 °F
Dew Point 41 °F
Humidity 99%
Rainfall 0.56 in
Snow Depth Not available.
7:16 AM 5:30 PM
Waxing Crescent, 35% visible
METAR KGRF 132258Z 17007G14KT 4SM -RA BR SCT025 OVC035 08/08 A3017 RMK AO2A SLP222 WND DATA ESTMD P0009 T00780076 $
Pressure 30.19 in
Visibility 4.0 miles
Clouds Scattered Clouds 2500 ft
Overcast 3500 ft
Windchill 41 °F
Dew Point 41 °F
Humidity 99%
Rainfall 0.56 in
Snow Depth Not available.
7:16 AM 5:30 PM
Waxing Crescent, 35% visible
METAR KGRF 132258Z 17007G14KT 4SM -RA BR SCT025 OVC035 08/08 A3017 RMK AO2A SLP222 WND DATA ESTMD P0009 T00780076 $

10-Day Weather Forecast

Almanac

Astronomy

Feb. 13, 2016 Rise Set
Actual Time
Civil Twilight
Nautical Twilight
Astronomical Twilight
Moon
Length of Visible Light
Length of Day
Tomorrow will be .
, % of the Moon is Illuminated

Today's Extremes

State Highs State Lows

Community

WunderPhotos

Upload Photos

1,892,692 photos uploaded!

WunderBlog® & News

Nearby

Air Quality

  Air Quality AQ Index Pollutant
Not available.

Snow Depth

Station Depth Elevation

Earthquake Activity

City Distance Mag. Time & Date
Minimum magnitude displayed is 2.5.

Coastal Water Temperatures

Place Temperature

Stations

Nearby Weather Stations

Station Location Temp. Windchill Dew Point Humidity Wind Precip. Elev Updated Type
                   

Watches & Warnings

Winter Weather Advisory
Issued: 12:39 PM PST Feb. 13, 2016 – National Weather Service

... Winter Weather Advisory remains in effect from 4 PM this
afternoon to 10 am PST Sunday...

* accumulations... 4 to 11 inches are possible above 5000 ft from
this afternoon through late Sunday morning.

* Some affected locations... Paradise on Mt Rainier.

* Main impact... snow covered roads and reduced visibilities at
times.

Precautionary/preparedness actions...

A Winter Weather Advisory for snow means that periods of snow will
cause primarily travel difficulties. Be prepared for snow covered
roads and limited visibilities... and use caution while driving.